createdAt,value
2019-01-28T00:02:08.431Z,24.80
2019-01-28T00:04:39.220Z,24.80
2019-01-28T00:07:09.929Z,24.20
2019-01-28T00:09:40.574Z,25.97
2019-01-28T00:12:11.150Z,25.77
2019-01-28T00:14:41.780Z,26.40
2019-01-28T00:17:12.580Z,29.73
2019-01-28T00:19:42.957Z,28.50
2019-01-28T00:22:13.585Z,27.20
2019-01-28T00:24:44.099Z,27.73
2019-01-28T00:27:14.799Z,27.03
2019-01-28T00:29:45.336Z,26.57
2019-01-28T00:32:16.210Z,26.23
2019-01-28T00:34:46.909Z,26.73
2019-01-28T00:37:17.349Z,25.60
2019-01-28T00:39:47.859Z,26.47
2019-01-28T00:42:18.734Z,27.90
2019-01-28T00:44:49.491Z,27.73
2019-01-28T00:47:20.197Z,26.50
2019-01-28T00:49:50.809Z,25.33
2019-01-28T00:52:21.464Z,26.50
2019-01-28T00:54:51.909Z,27.17
2019-01-28T00:57:22.552Z,27.43
2019-01-28T00:59:53.890Z,25.67
2019-01-28T01:02:24.740Z,27.47
2019-01-28T01:04:55.269Z,25.60
2019-01-28T01:07:25.875Z,27.23
2019-01-28T01:09:56.497Z,29.20
2019-01-28T01:12:27.029Z,25.60
2019-01-28T01:14:57.695Z,27.37
2019-01-28T01:17:28.401Z,27.43
2019-01-28T01:19:58.920Z,27.03
2019-01-28T01:22:29.539Z,26.57
2019-01-28T01:25:00.794Z,28.47
2019-01-28T01:27:31.409Z,28.07
2019-01-28T01:30:01.992Z,29.93
2019-01-28T01:32:32.653Z,31.57
2019-01-28T01:35:03.415Z,33.03
2019-01-28T01:37:33.864Z,29.37
2019-01-28T01:40:05.300Z,28.90
2019-01-28T01:42:35.880Z,27.60
2019-01-28T01:45:08.460Z,27.20
2019-01-28T01:47:39.010Z,24.40
2019-01-28T01:50:11.254Z,27.50
2019-01-28T01:52:43.358Z,27.13
2019-01-28T01:55:15.134Z,28.13
2019-01-28T01:57:45.709Z,28.37
2019-01-28T02:00:19.258Z,28.00
2019-01-28T02:02:49.929Z,28.70
2019-01-28T02:05:20.824Z,28.63
2019-01-28T02:07:51.368Z,29.60
2019-01-28T02:10:22.038Z,30.73
2019-01-28T02:12:52.438Z,29.83
2019-01-28T02:15:23.058Z,30.03
2019-01-28T02:17:53.738Z,29.17
2019-01-28T02:20:24.331Z,28.67
2019-01-28T02:22:54.979Z,29.03
2019-01-28T02:25:25.638Z,27.73
2019-01-28T02:27:56.264Z,29.70
2019-01-28T02:30:26.915Z,29.70
2019-01-28T02:32:57.494Z,31.37
2019-01-28T02:35:28.040Z,30.10
2019-01-28T02:37:58.576Z,29.77
2019-01-28T02:40:29.530Z,29.20
2019-01-28T02:43:00.337Z,30.90
2019-01-28T02:45:31.056Z,28.83
2019-01-28T02:48:01.684Z,28.73
2019-01-28T02:50:32.634Z,27.43
2019-01-28T02:53:03.320Z,27.83
2019-01-28T02:55:34.258Z,28.63
2019-01-28T02:58:04.864Z,29.10
2019-01-28T03:00:35.306Z,28.87
2019-01-28T03:03:06.018Z,28.80
2019-01-28T03:05:36.724Z,27.23
2019-01-28T03:08:07.250Z,28.63
2019-01-28T03:10:37.804Z,27.83
2019-01-28T03:13:08.440Z,27.87
2019-01-28T03:15:39.036Z,27.77
2019-01-28T03:18:09.650Z,28.63
2019-01-28T03:20:40.090Z,26.10
2019-01-28T03:23:11.805Z,29.10
2019-01-28T03:25:42.450Z,27.27
2019-01-28T03:28:13.059Z,26.57
2019-01-28T03:30:43.681Z,27.07
2019-01-28T03:33:14.191Z,26.67
2019-01-28T03:35:44.740Z,26.23
2019-01-28T03:38:15.418Z,26.70
2019-01-28T03:40:45.990Z,27.67
2019-01-28T03:43:16.640Z,26.80
2019-01-28T03:45:47.290Z,27.90
2019-01-28T03:48:18.266Z,28.00
2019-01-28T03:50:48.943Z,28.23
2019-01-28T03:53:20.094Z,29.40
2019-01-28T03:55:50.819Z,30.33
2019-01-28T03:58:21.564Z,31.10
2019-01-28T04:00:52.138Z,30.07
2019-01-28T04:03:22.800Z,30.83
2019-01-28T04:05:53.449Z,30.67
2019-01-28T04:08:24.048Z,31.40
2019-01-28T04:10:54.704Z,30.50
2019-01-28T04:13:25.225Z,30.67
2019-01-28T04:15:55.810Z,29.23
2019-01-28T04:18:28.099Z,29.33
2019-01-28T04:20:58.729Z,30.60
2019-01-28T04:23:29.345Z,29.43
2019-01-28T04:25:59.999Z,28.20
2019-01-28T04:28:30.695Z,28.27
2019-01-28T04:31:01.284Z,27.63
2019-01-28T04:33:31.966Z,29.10
2019-01-28T04:36:02.594Z,29.53
2019-01-28T04:38:33.378Z,28.10
2019-01-28T04:41:04.241Z,28.97
2019-01-28T04:43:34.774Z,28.77
2019-01-28T04:46:05.624Z,29.83
2019-01-28T04:48:36.316Z,28.43
2019-01-28T04:51:07.004Z,30.23
2019-01-28T04:53:37.679Z,28.93
2019-01-28T04:56:08.306Z,28.57
2019-01-28T04:58:38.863Z,27.67
2019-01-28T05:01:09.559Z,28.13
2019-01-28T05:03:40.489Z,29.43
2019-01-28T05:06:11.142Z,30.20
2019-01-28T05:08:41.749Z,31.20
2019-01-28T05:11:12.478Z,30.77
2019-01-28T05:13:43.175Z,30.47
2019-01-28T05:16:13.731Z,31.40
2019-01-28T05:18:44.380Z,28.73
2019-01-28T05:21:15.114Z,29.03
2019-01-28T05:23:45.613Z,26.93
2019-01-28T05:26:16.318Z,28.23
2019-01-28T05:28:46.994Z,27.57
2019-01-28T05:31:17.700Z,28.83
2019-01-28T05:33:48.488Z,29.93
2019-01-28T05:36:19.110Z,28.60
2019-01-28T05:38:49.732Z,30.17
2019-01-28T05:41:20.395Z,28.40
2019-01-28T05:43:50.856Z,26.97
2019-01-28T05:46:21.581Z,26.97
2019-01-28T05:48:52.222Z,27.60
2019-01-28T05:51:22.889Z,29.13
2019-01-28T05:53:53.916Z,28.30
2019-01-28T05:56:24.639Z,28.87
2019-01-28T05:58:55.350Z,27.00
2019-01-28T06:01:25.990Z,27.83
2019-01-28T06:03:56.596Z,25.40
2019-01-28T06:06:27.392Z,26.20
2019-01-28T06:08:57.879Z,24.40
2019-01-28T06:11:28.601Z,27.37
2019-01-28T06:13:59.115Z,26.23
2019-01-28T06:16:29.707Z,27.23
2019-01-28T06:19:00.385Z,26.40
2019-01-28T06:21:31.055Z,26.17
2019-01-28T06:24:01.635Z,27.60
2019-01-28T06:26:32.278Z,28.60
2019-01-28T06:29:04.368Z,28.40
2019-01-28T06:31:35.122Z,30.70
2019-01-28T06:34:06.283Z,31.70
2019-01-28T06:36:37.138Z,32.73
2019-01-28T06:39:11.088Z,30.83
2019-01-28T06:41:41.704Z,31.03
2019-01-28T06:44:12.374Z,33.07
2019-01-28T06:46:42.929Z,31.03
2019-01-28T06:49:13.699Z,30.40
2019-01-28T06:51:44.415Z,28.97
2019-01-28T06:54:15.039Z,30.43
2019-01-28T06:56:45.700Z,31.60
2019-01-28T06:59:16.314Z,30.20
2019-01-28T07:01:47.095Z,32.53
2019-01-28T07:04:17.983Z,30.83
2019-01-28T07:06:48.947Z,30.17
2019-01-28T07:09:19.519Z,30.63
2019-01-28T07:11:50.224Z,30.03
2019-01-28T07:14:20.989Z,31.40
2019-01-28T07:16:51.699Z,29.80
2019-01-28T07:19:22.641Z,28.57
2019-01-28T07:21:53.293Z,30.67
2019-01-28T07:24:23.969Z,30.07
2019-01-28T07:26:55.584Z,29.40
2019-01-28T07:29:26.198Z,31.23
2019-01-28T07:31:56.743Z,30.90
2019-01-28T07:34:27.622Z,33.00
2019-01-28T07:36:59.195Z,30.80
2019-01-28T07:39:29.826Z,33.43
2019-01-28T07:42:00.529Z,31.37
2019-01-28T07:44:31.261Z,31.97
2019-01-28T07:47:02.045Z,30.33
2019-01-28T07:49:32.858Z,31.90
2019-01-28T07:52:03.565Z,33.93
2019-01-28T07:54:34.438Z,34.00
2019-01-28T07:57:05.070Z,35.50
2019-01-28T07:59:35.796Z,33.67
2019-01-28T08:02:06.776Z,35.43
2019-01-28T08:04:37.390Z,37.83
2019-01-28T08:07:08.238Z,38.23
2019-01-28T08:09:38.914Z,38.80
2019-01-28T08:12:09.492Z,39.83
2019-01-28T08:14:40.040Z,41.37
2019-01-28T08:17:10.693Z,41.43
2019-01-28T08:19:41.338Z,36.03
2019-01-28T08:22:12.523Z,37.70
2019-01-28T08:24:43.519Z,37.13
2019-01-28T08:27:14.060Z,36.50
2019-01-28T08:29:44.583Z,35.97
2019-01-28T08:32:15.221Z,36.10
2019-01-28T08:34:45.853Z,34.63
2019-01-28T08:37:16.404Z,35.17
2019-01-28T08:39:47.002Z,34.90
2019-01-28T08:42:17.586Z,33.67
2019-01-28T08:44:48.350Z,34.90
2019-01-28T08:47:19.017Z,33.87
2019-01-28T08:49:49.860Z,33.77
2019-01-28T08:52:20.629Z,34.23
2019-01-28T08:54:51.224Z,33.93
2019-01-28T08:57:21.797Z,32.93
2019-01-28T08:59:52.630Z,34.33
2019-01-28T09:02:23.174Z,34.87
2019-01-28T09:04:54.244Z,35.73
2019-01-28T09:07:24.742Z,33.97
2019-01-28T09:09:55.488Z,33.60
2019-01-28T09:12:26.677Z,33.53
2019-01-28T09:14:59.047Z,33.00
2019-01-28T09:17:29.693Z,31.73
2019-01-28T09:20:00.317Z,34.00
2019-01-28T09:22:30.890Z,34.63
2019-01-28T09:25:01.658Z,34.03
2019-01-28T09:27:32.341Z,33.83
2019-01-28T09:30:02.960Z,31.93
2019-01-28T09:32:33.630Z,32.87
2019-01-28T09:35:05.378Z,33.27
2019-01-28T09:37:35.954Z,33.27
2019-01-28T09:40:09.027Z,30.77
2019-01-28T09:42:39.790Z,31.33
2019-01-28T09:45:15.120Z,32.17
2019-01-28T09:47:45.794Z,31.90
2019-01-28T09:50:17.687Z,33.13
2019-01-28T09:52:50.869Z,32.53
2019-01-28T09:55:21.646Z,32.27
2019-01-28T09:57:52.409Z,33.10
2019-01-28T10:00:42.488Z,33.87
2019-01-28T10:03:13.138Z,35.60
2019-01-28T10:05:44.026Z,36.27
2019-01-28T10:08:14.879Z,35.63
2019-01-28T10:10:45.990Z,37.07
2019-01-28T10:13:16.690Z,37.07
2019-01-28T10:15:47.272Z,39.07
2019-01-28T10:18:17.897Z,38.43
2019-01-28T10:20:50.339Z,37.87
2019-01-28T10:23:20.916Z,38.43
2019-01-28T10:25:51.427Z,55.00
2019-01-28T10:28:22.115Z,49.17
2019-01-28T10:30:52.928Z,63.63
2019-01-28T10:33:23.514Z,55.97
2019-01-28T10:35:54.291Z,43.27
2019-01-28T10:38:25.119Z,40.00
2019-01-28T10:40:55.740Z,39.87
2019-01-28T10:43:26.439Z,33.83
2019-01-28T10:45:57.087Z,33.07
2019-01-28T10:48:31.141Z,32.63
2019-01-28T10:51:08.046Z,31.27
2019-01-28T10:53:38.761Z,31.07
2019-01-28T10:56:09.469Z,29.43
2019-01-28T10:58:40.179Z,28.90
2019-01-28T11:01:10.934Z,26.77
2019-01-28T11:03:41.649Z,28.53
2019-01-28T11:06:12.550Z,26.87
2019-01-28T11:08:43.066Z,24.50
2019-01-28T11:11:13.889Z,25.00
2019-01-28T11:13:44.587Z,24.17
2019-01-28T11:16:15.166Z,24.00
2019-01-28T11:18:46.180Z,25.83
2019-01-28T11:21:19.646Z,24.63
2019-01-28T11:23:50.455Z,25.00
2019-01-28T11:26:21.533Z,24.67
2019-01-28T11:28:52.201Z,25.23
2019-01-28T11:31:23.168Z,25.37
2019-01-28T11:33:54.229Z,24.00
2019-01-28T11:36:25.235Z,22.90
2019-01-28T11:38:56.002Z,23.47
2019-01-28T11:41:26.739Z,22.57
2019-01-28T11:43:57.466Z,20.40
2019-01-28T11:46:28.138Z,20.87
2019-01-28T11:49:05.742Z,19.57
2019-01-28T11:51:31.200Z,17.63
2019-01-28T11:54:02.098Z,18.00
2019-01-28T11:56:33.196Z,17.63
2019-01-28T11:59:03.819Z,17.30
2019-01-28T12:01:34.909Z,15.50
2019-01-28T12:04:06.128Z,16.30
2019-01-28T12:06:36.720Z,15.33
2019-01-28T12:09:11.033Z,14.47
2019-01-28T12:11:41.787Z,14.87
2019-01-28T12:14:12.465Z,13.57
2019-01-28T12:16:43.084Z,13.50
2019-01-28T12:19:14.557Z,13.70
2019-01-28T12:21:45.374Z,12.97
2019-01-28T12:24:16.112Z,13.40
2019-01-28T12:26:46.771Z,13.63
2019-01-28T12:29:17.549Z,14.00
2019-01-28T12:31:48.267Z,13.57
2019-01-28T12:34:18.805Z,14.27
2019-01-28T12:36:49.450Z,15.00
2019-01-28T12:39:20.229Z,14.93
2019-01-28T12:41:50.901Z,14.27
2019-01-28T12:44:21.619Z,14.77
2019-01-28T12:46:52.269Z,14.40
2019-01-28T12:49:23.048Z,13.87
2019-01-28T12:51:53.790Z,15.80
2019-01-28T12:54:24.579Z,14.90
2019-01-28T12:56:55.661Z,15.17
2019-01-28T12:59:31.370Z,14.83
2019-01-28T13:02:02.320Z,15.23
2019-01-28T13:04:33.035Z,16.00
2019-01-28T13:07:04.010Z,18.37
2019-01-28T13:09:34.700Z,20.17
2019-01-28T13:12:05.614Z,18.40
2019-01-28T13:14:36.237Z,20.50
2019-01-28T13:17:06.950Z,18.47
2019-01-28T13:19:37.517Z,17.07
2019-01-28T13:22:08.239Z,16.37
2019-01-28T13:24:38.830Z,17.73
2019-01-28T13:27:09.836Z,21.97
2019-01-28T13:29:40.535Z,21.70
2019-01-28T13:32:11.191Z,23.47
2019-01-28T13:34:41.876Z,24.17
2019-01-28T13:37:12.514Z,23.80
2019-01-28T13:39:43.190Z,23.73
2019-01-28T13:42:13.989Z,23.30
2019-01-28T13:44:44.665Z,26.63
2019-01-28T13:47:20.206Z,27.20
2019-01-28T13:49:51.434Z,28.00
2019-01-28T13:52:22.027Z,29.57
2019-01-28T13:54:52.670Z,30.13
2019-01-28T13:57:23.369Z,27.33
2019-01-28T13:59:54.130Z,26.53
2019-01-28T14:02:24.869Z,23.63
2019-01-28T14:04:55.490Z,22.77
2019-01-28T14:07:27.440Z,24.30
2019-01-28T14:09:58.174Z,24.03
2019-01-28T14:12:28.790Z,23.47
2019-01-28T14:14:59.475Z,21.53
2019-01-28T14:17:30.173Z,18.47
2019-01-28T14:20:00.840Z,18.00
2019-01-28T14:22:31.589Z,18.23
2019-01-28T14:25:02.122Z,17.93
2019-01-28T14:27:32.869Z,17.30
2019-01-28T14:30:03.556Z,16.83
2019-01-28T14:32:34.190Z,16.37
2019-01-28T14:35:05.165Z,17.43
2019-01-28T14:37:35.959Z,16.77
2019-01-28T14:40:08.559Z,17.53
2019-01-28T14:42:39.165Z,17.53
2019-01-28T14:45:11.262Z,18.30
2019-01-28T14:47:42.128Z,17.60
2019-01-28T14:50:20.435Z,20.07
2019-01-28T14:52:51.107Z,21.73
2019-01-28T14:55:21.810Z,21.50
2019-01-28T14:57:52.490Z,21.33
2019-01-28T15:00:28.084Z,20.00
2019-01-28T15:02:58.777Z,23.93
2019-01-28T15:05:29.430Z,26.57
2019-01-28T15:08:00.111Z,26.97
2019-01-28T15:10:32.850Z,29.90
2019-01-28T15:13:03.621Z,32.07
2019-01-28T15:15:36.694Z,29.43
2019-01-28T15:18:10.150Z,30.37
2019-01-28T15:20:40.950Z,30.03
2019-01-28T15:23:11.585Z,30.83
2019-01-28T15:25:42.364Z,29.03
2019-01-28T15:28:13.305Z,29.40
2019-01-28T15:30:44.325Z,29.23
2019-01-28T15:33:15.155Z,29.40
2019-01-28T15:35:46.059Z,30.17
2019-01-28T15:38:16.948Z,28.97
2019-01-28T15:40:47.660Z,30.70
2019-01-28T15:43:18.357Z,28.80
2019-01-28T15:45:49.148Z,29.23
2019-01-28T15:48:19.921Z,28.23
2019-01-28T15:50:50.724Z,29.13
2019-01-28T15:53:21.316Z,29.10
2019-01-28T15:55:51.950Z,30.00
2019-01-28T15:58:22.664Z,32.27
2019-01-28T16:00:53.244Z,30.43
2019-01-28T16:03:30.764Z,29.37
2019-01-28T16:06:02.432Z,29.03
2019-01-28T16:08:33.076Z,29.73
2019-01-28T16:11:03.975Z,29.57
2019-01-28T16:13:34.530Z,27.70
2019-01-28T16:16:06.295Z,29.20
2019-01-28T16:18:36.934Z,30.73
2019-01-28T16:21:07.604Z,29.40
2019-01-28T16:23:38.539Z,30.50
2019-01-28T16:26:12.140Z,30.37
2019-01-28T16:28:42.880Z,30.30
2019-01-28T16:31:14.654Z,31.57
2019-01-28T16:33:45.242Z,32.67
2019-01-28T16:36:16.180Z,31.03
2019-01-28T16:38:46.856Z,30.47
2019-01-28T16:41:17.489Z,30.87
2019-01-28T16:43:48.166Z,31.87
2019-01-28T16:46:18.844Z,32.57
2019-01-28T16:48:49.316Z,33.80
2019-01-28T16:51:19.939Z,37.93
2019-01-28T16:53:50.696Z,34.70
2019-01-28T16:56:22.469Z,33.73
2019-01-28T16:58:53.172Z,32.57
2019-01-28T17:01:23.845Z,33.20
2019-01-28T17:03:57.880Z,33.90
2019-01-28T17:06:28.538Z,33.03
2019-01-28T17:08:59.246Z,31.90
2019-01-28T17:11:29.865Z,34.50
2019-01-28T17:14:00.525Z,33.43
2019-01-28T17:16:31.150Z,33.70
2019-01-28T17:19:01.940Z,35.00
2019-01-28T17:21:32.984Z,34.73
2019-01-28T17:24:03.630Z,35.13
2019-01-28T17:26:34.304Z,36.77
2019-01-28T17:29:05.081Z,37.80
2019-01-28T17:31:37.054Z,36.53
2019-01-28T17:34:08.950Z,35.37
2019-01-28T17:36:39.602Z,36.13
2019-01-28T17:39:12.480Z,37.10
2019-01-28T17:41:46.662Z,38.13
2019-01-28T17:44:20.799Z,41.23
2019-01-28T17:46:51.728Z,43.97
2019-01-28T17:49:22.462Z,41.27
2019-01-28T17:51:53.040Z,43.40
2019-01-28T17:54:24.062Z,42.63
2019-01-28T17:56:59.849Z,42.83
2019-01-28T17:59:33.108Z,42.13
2019-01-28T18:02:03.949Z,46.07
2019-01-28T18:04:36.920Z,42.93
2019-01-28T18:07:11.149Z,43.00
2019-01-28T18:09:41.740Z,42.83
2019-01-28T18:12:13.395Z,43.77
2019-01-28T18:14:49.495Z,46.47
2019-01-28T18:17:20.167Z,44.47
2019-01-28T18:19:52.399Z,45.87
2019-01-28T18:22:26.695Z,46.67
2019-01-28T18:25:02.886Z,45.87
2019-01-28T18:27:36.004Z,42.57
2019-01-28T18:30:13.253Z,43.27
2019-01-28T18:32:51.784Z,43.23
2019-01-28T18:35:26.634Z,44.70
2019-01-28T18:38:00.381Z,47.53
2019-01-28T18:40:32.908Z,48.17
2019-01-28T18:43:06.479Z,49.87
2019-01-28T18:45:44.685Z,48.77
2019-01-28T18:48:18.744Z,46.40
2019-01-28T18:50:49.539Z,45.70
2019-01-28T18:53:22.300Z,47.27
2019-01-28T18:55:55.737Z,49.03
2019-01-28T18:58:36.859Z,46.43
2019-01-28T19:01:09.630Z,46.13
2019-01-28T19:03:48.645Z,46.47
2019-01-28T19:06:38.480Z,48.03
2019-01-28T19:09:20.015Z,47.30
2019-01-28T19:12:09.545Z,44.80
2019-01-28T19:15:00.546Z,46.17
2019-01-28T19:17:46.090Z,46.83
2019-01-28T19:20:24.121Z,48.00
2019-01-28T19:23:07.395Z,50.43
2019-01-28T19:25:39.868Z,47.97
2019-01-28T19:28:12.214Z,45.93
2019-01-28T19:30:44.023Z,45.43
2019-01-28T19:33:22.790Z,46.77
2019-01-28T19:35:53.515Z,45.87
2019-01-28T19:38:31.634Z,46.83
2019-01-28T19:41:02.759Z,46.67
2019-01-28T19:43:34.204Z,45.27
2019-01-28T19:46:10.357Z,46.50
2019-01-28T19:48:43.464Z,45.13
2019-01-28T19:51:15.767Z,41.63
2019-01-28T19:53:46.894Z,44.67
2019-01-28T19:56:18.184Z,41.77
2019-01-28T19:58:51.031Z,42.27
2019-01-28T20:01:21.732Z,42.03
2019-01-28T20:03:52.545Z,39.43
2019-01-28T20:06:23.274Z,37.80
2019-01-28T20:08:54.129Z,38.73
2019-01-28T20:11:24.796Z,38.40
2019-01-28T20:13:55.465Z,40.00
2019-01-28T20:16:33.201Z,39.47
2019-01-28T20:19:12.516Z,41.53
2019-01-28T20:21:45.614Z,42.90
2019-01-28T20:24:18.800Z,43.03
2019-01-28T20:26:49.519Z,43.13
2019-01-28T20:29:20.329Z,42.07
2019-01-28T20:31:55.654Z,41.87
2019-01-28T20:34:26.479Z,40.77
2019-01-28T20:37:06.399Z,41.63
2019-01-28T20:39:43.628Z,42.10
2019-01-28T20:42:18.024Z,42.17
2019-01-28T20:44:50.544Z,42.90
2019-01-28T20:47:22.781Z,45.33
2019-01-28T20:49:57.650Z,43.53
2019-01-28T20:52:31.850Z,44.73
2019-01-28T20:55:06.288Z,41.07
2019-01-28T20:57:39.215Z,40.53
2019-01-28T21:00:18.983Z,37.33
2019-01-28T21:02:49.730Z,38.63
2019-01-28T21:05:25.726Z,37.07
2019-01-28T21:08:01.627Z,36.37
2019-01-28T21:10:32.863Z,36.87
2019-01-28T21:13:04.991Z,36.23
2019-01-28T21:15:39.357Z,36.17
2019-01-28T21:18:13.985Z,35.57
2019-01-28T21:20:44.780Z,36.33
2019-01-28T21:23:15.929Z,39.80
2019-01-28T21:25:46.850Z,39.97
2019-01-28T21:28:19.864Z,39.73
2019-01-28T21:30:50.645Z,43.70
2019-01-28T21:33:22.516Z,43.07
2019-01-28T21:36:07.122Z,41.70
2019-01-28T21:38:44.796Z,40.27
2019-01-28T21:41:15.840Z,39.87
2019-01-28T21:43:46.589Z,40.93
2019-01-28T21:46:18.759Z,42.43
2019-01-28T21:48:53.303Z,38.37
2019-01-28T21:51:24.055Z,36.67
2019-01-28T21:53:54.997Z,35.30
2019-01-28T21:56:29.046Z,36.37
2019-01-28T21:58:59.780Z,33.80
2019-01-28T22:01:30.746Z,34.10
2019-01-28T22:04:02.699Z,33.57
2019-01-28T22:06:33.330Z,34.00
2019-01-28T22:09:04.302Z,31.93
2019-01-28T22:11:35.305Z,32.83
2019-01-28T22:14:06.127Z,33.00
2019-01-28T22:16:36.768Z,33.00
2019-01-28T22:19:07.552Z,31.97
2019-01-28T22:21:38.318Z,29.83
2019-01-28T22:24:09.217Z,29.93
2019-01-28T22:26:40.408Z,30.83
2019-01-28T22:29:11.129Z,31.53
2019-01-28T22:31:41.984Z,32.70
2019-01-28T22:34:12.757Z,35.10
2019-01-28T22:36:43.400Z,35.20
2019-01-28T22:39:15.246Z,32.33
2019-01-28T22:41:45.862Z,30.57
2019-01-28T22:44:16.462Z,28.67
2019-01-28T22:46:47.114Z,27.93
2019-01-28T22:49:17.901Z,28.87
2019-01-28T22:51:48.630Z,29.07
2019-01-28T22:54:19.296Z,28.63
2019-01-28T22:56:49.993Z,27.50
2019-01-28T22:59:20.873Z,26.40
2019-01-28T23:01:51.732Z,26.27
2019-01-28T23:04:22.472Z,28.73
2019-01-28T23:06:53.228Z,28.63
2019-01-28T23:09:23.866Z,27.23
2019-01-28T23:11:54.647Z,30.73
2019-01-28T23:14:25.498Z,28.37
2019-01-28T23:16:56.222Z,30.90
2019-01-28T23:19:26.928Z,26.60
2019-01-28T23:21:57.711Z,24.73
2019-01-28T23:24:29.091Z,20.97
2019-01-28T23:26:59.680Z,21.87
2019-01-28T23:29:30.452Z,20.27
2019-01-28T23:32:01.112Z,18.27
2019-01-28T23:34:31.887Z,17.43
2019-01-28T23:37:02.576Z,16.30
2019-01-28T23:39:33.207Z,16.87
2019-01-28T23:42:04.002Z,16.03
2019-01-28T23:44:34.646Z,15.57
2019-01-28T23:47:05.371Z,15.37
2019-01-28T23:49:36.099Z,15.47
2019-01-28T23:52:06.888Z,14.70
2019-01-28T23:54:37.425Z,16.90
2019-01-28T23:57:08.120Z,14.47
2019-01-28T23:59:38.844Z,19.17
